Time;durP1;ratioP1;P1;durP2;ratioP2;P2;SDS_P1;SDS_P2;PMS_P1;PMS_P2;Temp;Humidity;BMP_temperature;BMP_pressure;BME280_temperature;BME280_humidity;BME280_pressure;Samples;Min_cycle;Max_cycle;Signal;HPM_P1;HPM_P2
2023/07/19 00:04:00;;;;;;;6.05;3.38;;;;;;;21.28;58.95;100718.38;10259697;28;96736;-89
2023/07/19 00:09:04;;;;;;;;;;;;;;;21.19;59.09;100719.09;10279795;28;96836;-89
2023/07/19 00:14:27;;;;;;;5.93;3.38;;;;;;;21.12;58.99;100728.53;10294015;28;96603;-89
2023/07/19 00:19:31;;;;;;;5.15;3.30;;;;;;;21.06;58.96;100727.16;10299592;28;97813;-89
2023/07/19 00:24:36;;;;;;;4.60;2.97;;;;;;;21.05;58.90;100722.78;10299726;28;96772;-89
2023/07/19 00:30:00;;;;;;;4.32;2.85;;;;;;;20.76;59.83;100723.22;10264031;28;96921;-89
2023/07/19 00:35:04;;;;;;;5.38;3.38;;;;;;;20.68;60.06;100718.47;10258351;28;96709;-89
2023/07/19 00:40:10;;;;;;;6.05;3.42;;;;;;;20.73;59.72;100721.66;10256777;28;96954;-89
2023/07/19 00:45:17;;;;;;;5.85;3.45;;;;;;;20.55;60.07;100723.00;10295050;28;96947;-89
2023/07/19 00:50:23;;;;;;;6.68;3.40;;;;;;;20.62;59.76;100721.59;10298090;28;96798;-89
2023/07/19 00:55:27;;;;;;;7.72;4.15;;;;;;;20.46;60.36;100717.47;10298228;28;97559;-89
2023/07/19 01:00:34;;;;;;;6.32;3.50;;;;;;;20.14;61.12;100715.28;10291302;28;97973;-89
2023/07/19 01:05:40;;;;;;;5.18;3.40;;;;;;;20.32;60.84;100713.97;10299042;28;96932;-88
2023/07/19 01:10:44;;;;;;;6.00;3.72;;;;;;;20.03;61.38;100714.34;10298990;28;96688;-89
2023/07/19 01:15:50;;;;;;;7.22;4.07;;;;;;;19.90;61.76;100714.34;10298027;28;96823;-89
2023/07/19 01:20:54;;;;;;;6.70;3.65;;;;;;;20.18;61.35;100710.56;10297831;28;96648;-89
2023/07/19 01:26:01;;;;;;;6.65;3.15;;;;;;;20.34;60.77;100708.53;10296521;28;96932;-89
2023/07/19 01:31:07;;;;;;;5.30;3.17;;;;;;;20.07;61.56;100716.69;10214446;28;97601;-89
2023/07/19 01:36:12;;;;;;;4.97;3.45;;;;;;;20.20;61.29;100712.16;10289229;28;97401;-89
2023/07/19 01:41:19;;;;;;;6.68;3.35;;;;;;;20.45;60.62;100713.09;10296328;28;97593;-89
2023/07/19 01:46:23;;;;;;;7.88;3.00;;;;;;;20.24;61.05;100710.13;10296328;28;96780;-89
2023/07/19 01:51:28;;;;;;;5.00;3.10;;;;;;;20.14;60.76;100709.94;10295782;28;96835;-89
2023/07/19 01:56:34;;;;;;;5.50;3.22;;;;;;;20.00;61.20;100715.41;10290445;28;97504;-89
2023/07/19 02:01:39;;;;;;;4.85;3.42;;;;;;;19.85;61.55;100715.63;10254236;28;96657;-89
2023/07/19 02:06:44;;;;;;;5.50;3.13;;;;;;;19.68;61.86;100714.16;10264739;28;97104;-89
2023/07/19 02:11:51;;;;;;;4.20;2.90;;;;;;;19.89;61.48;100709.97;10295630;28;96934;-89
2023/07/19 02:16:55;;;;;;;5.50;3.58;;;;;;;19.72;61.70;100710.28;10295458;28;96645;-89
2023/07/19 02:22:00;;;;;;;6.72;3.63;;;;;;;19.71;61.86;100707.72;10294252;28;96716;-89
2023/07/19 02:27:07;;;;;;;8.73;3.95;;;;;;;19.81;61.40;100716.81;10297148;28;97204;-89
2023/07/19 02:32:11;;;;;;;5.20;3.20;;;;;;;19.43;62.75;100708.78;10299003;28;97200;-88
2023/07/19 02:37:16;;;;;;;8.00;3.40;;;;;;;19.68;62.06;100708.81;10297911;28;97244;-89
2023/07/19 02:42:22;;;;;;;8.27;3.50;;;;;;;19.58;62.35;100705.06;10298749;28;97026;-89
2023/07/19 02:47:26;;;;;;;5.72;3.50;;;;;;;19.39;62.63;100712.59;10299142;28;97597;-89
2023/07/19 02:52:30;;;;;;;;;;;;;;;19.41;62.81;100707.22;10300029;28;96748;-89
2023/07/19 02:57:37;;;;;;;6.72;3.13;;;;;;;19.29;62.87;100708.84;10274106;28;96964;-89
2023/07/19 03:02:41;;;;;;;7.53;3.75;;;;;;;19.54;62.21;100703.59;10258771;28;96704;-89
2023/07/19 03:07:46;;;;;;;6.50;3.00;;;;;;;19.25;63.04;100702.00;10257010;28;97400;-89
2023/07/19 03:12:52;;;;;;;5.82;3.45;;;;;;;19.13;63.34;100700.16;10259401;28;96667;-89
2023/07/19 03:17:56;;;;;;;5.63;3.40;;;;;;;19.10;63.06;100708.38;10299537;28;96767;-89
2023/07/19 03:23:00;;;;;;;4.93;2.97;;;;;;;19.12;62.96;100702.00;10308837;22;96831;-89
2023/07/19 03:28:05;;;;;;;6.07;3.60;;;;;;;19.23;62.66;100702.09;10258847;28;97506;-89
2023/07/19 03:33:08;;;;;;;6.53;3.22;;;;;;;19.10;62.65;100700.38;10250447;28;96706;-89
2023/07/19 03:38:12;;;;;;;6.85;3.67;;;;;;;19.03;62.81;100704.41;10266041;28;97813;-89
2023/07/19 03:43:16;;;;;;;6.32;3.58;;;;;;;18.96;62.75;100703.13;10248799;28;96940;-89
2023/07/19 03:48:20;;;;;;;4.97;3.40;;;;;;;18.43;64.49;100700.44;10224456;28;96807;-89
2023/07/19 03:53:23;;;;;;;7.18;3.75;;;;;;;18.16;65.46;100697.72;10221185;28;96938;-89
2023/07/19 03:58:28;;;;;;;5.28;3.50;;;;;;;18.34;64.90;100703.69;10221244;28;96850;-88
2023/07/19 04:03:31;;;;;;;10.05;3.88;;;;;;;18.56;64.23;100699.56;10225380;28;97688;-88
2023/07/19 04:08:35;;;;;;;7.10;3.45;;;;;;;18.21;65.56;100708.09;10255017;28;96744;-88
2023/07/19 04:13:40;;;;;;;7.00;4.03;;;;;;;18.61;64.66;100704.63;10263880;28;96792;-88
2023/07/19 04:19:01;;;;;;;7.38;3.72;;;;;;;19.13;63.75;100701.03;10245173;28;96859;-89
2023/07/19 04:24:04;;;;;;;5.15;3.25;;;;;;;19.06;63.36;100705.06;10219784;28;96802;-89
2023/07/19 04:29:09;;;;;;;6.65;2.72;;;;;;;19.21;63.02;100716.53;10220595;28;96633;-89
2023/07/19 04:34:12;;;;;;;;;;;;;;;19.12;62.97;100710.00;10220832;28;97774;-89
2023/07/19 04:39:16;;;;;;;6.47;2.90;;;;;;;19.30;62.50;100713.25;10220621;28;96755;-89
2023/07/19 04:44:21;;;;;;;5.90;3.00;;;;;;;19.32;62.59;100716.63;10219005;28;96736;-89
2023/07/19 04:49:25;;;;;;;6.68;3.47;;;;;;;19.35;62.20;100715.59;10218522;28;96772;-89
2023/07/19 04:54:48;;;;;;;9.90;4.63;;;;;;;19.30;63.03;100723.91;10213661;28;97471;-89
2023/07/19 04:59:52;;;;;;;9.13;4.38;;;;;;;19.56;62.64;100731.03;10217588;28;97208;-89
2023/07/19 05:04:55;;;;;;;;;;;;;;;19.37;63.58;100735.88;10217312;28;96678;-89
2023/07/19 05:10:16;;;;;;;10.88;5.68;;;;;;;19.34;63.77;100736.06;10210575;28;96677;-89
2023/07/19 05:15:21;;;;;;;9.13;5.32;;;;;;;19.27;64.57;100745.44;10216820;28;97027;-89
2023/07/19 05:20:24;;;;;;;;;;;;;;;19.12;66.65;100733.16;10216840;28;96953;-90
2023/07/19 05:25:27;;;;;;;9.55;4.22;;;;;;;19.27;64.55;100745.44;10216066;28;97416;-90
2023/07/19 05:30:49;;;;;;;10.07;5.18;;;;;;;19.39;64.53;100759.81;10211173;28;96738;-89
2023/07/19 05:35:52;;;;;;;;;;;;;;;19.48;65.23;100752.03;10216178;28;97268;-89
2023/07/19 05:41:00;;;;;;;6.82;3.78;;;;;;;19.44;64.65;100757.69;10216656;28;96751;-89
2023/07/19 05:46:06;;;;;;;6.57;4.07;;;;;;;19.25;65.26;100764.22;10215435;28;96928;-90
2023/07/19 05:51:09;;;;;;;6.32;3.45;;;;;;;19.42;64.63;100757.81;10216304;28;96783;-89
2023/07/19 05:56:30;;;;;;;7.78;3.80;;;;;;;19.29;64.70;100763.09;10213793;28;96826;-89
2023/07/19 06:01:51;;;;;;;9.38;4.40;;;;;;;19.26;64.73;100760.63;10208804;28;97166;-89
2023/07/19 06:07:12;;;;;;;7.55;4.10;;;;;;;19.07;65.04;100765.47;10215054;28;97190;-90
2023/07/19 06:12:15;;;;;;;6.90;4.07;;;;;;;19.26;64.59;100759.75;10214904;28;96742;-89
2023/07/19 06:17:21;;;;;;;5.60;3.25;;;;;;;19.33;64.00;100757.53;10215183;28;96733;-89
2023/07/19 06:22:43;;;;;;;5.75;3.90;;;;;;;19.19;64.56;100763.81;10216453;28;96653;-89
2023/07/19 06:27:48;;;;;;;7.03;3.53;;;;;;;19.40;64.16;100757.06;10214864;28;96792;-89
2023/07/19 06:32:54;;;;;;;5.45;3.25;;;;;;;19.37;63.90;100764.38;10214369;28;97695;-89
2023/07/19 06:37:59;;;;;;;5.28;3.22;;;;;;;19.32;64.53;100767.34;10216572;28;96968;-89
2023/07/19 06:43:06;;;;;;;5.68;3.67;;;;;;;19.23;64.97;100767.97;10256482;28;96653;-90
2023/07/19 06:48:32;;;;;;;6.78;3.35;;;;;;;19.03;65.38;100777.31;10255632;28;96649;-88
2023/07/19 06:53:36;;;;;;;6.00;3.58;;;;;;;18.88;66.23;100766.78;10256391;28;96699;-89
2023/07/19 06:58:44;;;;;;;6.18;3.22;;;;;;;19.01;66.11;100765.88;10254128;28;96653;-90
2023/07/19 07:03:50;;;;;;;5.85;3.13;;;;;;;19.12;65.40;100765.16;10254562;28;97108;-89
2023/07/19 07:08:57;;;;;;;5.85;3.25;;;;;;;19.26;64.54;100757.97;10253991;28;96655;-87
2023/07/19 07:14:01;;;;;;;4.75;2.47;;;;;;;19.32;63.88;100759.34;10253648;28;97184;-90
2023/07/19 07:19:08;;;;;;;4.65;2.80;;;;;;;19.38;63.18;100747.41;10242795;28;96974;-87
2023/07/19 07:24:12;;;;;;;5.45;2.83;;;;;;;19.47;62.08;100752.16;10212525;28;97069;-88
2023/07/19 07:29:16;;;;;;;6.63;3.35;;;;;;;19.53;61.65;100749.91;10212817;28;96888;-88
2023/07/19 07:34:24;;;;;;;5.15;3.15;;;;;;;19.96;60.59;100750.47;10213019;28;97076;-90
2023/07/19 07:39:29;;;;;;;4.75;2.65;;;;;;;20.31;59.82;100752.38;10213871;28;96715;-87
2023/07/19 07:44:34;;;;;;;6.13;3.28;;;;;;;20.44;59.40;100747.00;10212863;28;96559;-89
2023/07/19 07:50:00;;;;;;;5.20;2.88;;;;;;;20.76;58.74;100747.31;10212866;28;96883;-89
2023/07/19 07:55:07;;;;;;;6.28;3.00;;;;;;;20.95;57.99;100742.31;10213138;28;97316;-89
2023/07/19 08:00:14;;;;;;;4.15;2.72;;;;;;;21.33;57.53;100743.84;10217462;28;97719;-88
2023/07/19 08:05:21;;;;;;;5.25;2.75;;;;;;;21.39;57.26;100754.09;10220403;28;97189;-89
2023/07/19 08:10:26;;;;;;;3.70;2.80;;;;;;;21.65;56.86;100749.41;10219434;28;97452;-89
2023/07/19 08:15:31;;;;;;;3.33;2.25;;;;;;;21.96;56.23;100745.19;10218496;28;97531;-88
2023/07/19 08:20:55;;;;;;;4.85;3.15;;;;;;;22.16;55.50;100745.34;10214088;28;97147;-89
2023/07/19 08:26:00;;;;;;;4.70;3.03;;;;;;;22.19;55.28;100745.13;10217402;28;96743;-89
2023/07/19 08:31:05;;;;;;;5.18;3.40;;;;;;;22.60;54.57;100734.59;10217453;28;96760;-88
2023/07/19 08:36:11;;;;;;;4.30;2.95;;;;;;;22.88;53.46;100733.19;10217566;28;96750;-88
2023/07/19 08:41:20;;;;;;;4.13;2.75;;;;;;;23.05;52.47;100729.97;10218101;28;96807;-89
2023/07/19 08:46:25;;;;;;;4.63;2.70;;;;;;;23.28;51.74;100728.03;10218047;28;96905;-88
2023/07/19 08:51:33;;;;;;;4.38;2.78;;;;;;;23.47;50.81;100718.28;10217486;28;96664;-88
2023/07/19 08:56:37;;;;;;;4.95;2.83;;;;;;;23.73;50.33;100718.75;10217892;28;97760;-89
2023/07/19 09:01:40;;;;;;;5.30;3.40;;;;;;;23.87;49.79;100710.34;10217282;28;96784;-87
2023/07/19 09:07:05;;;;;;;5.45;3.00;;;;;;;24.23;49.75;100714.31;10216290;28;97328;-87
2023/07/19 09:12:09;;;;;;;5.65;3.25;;;;;;;24.41;49.67;100702.78;10215311;28;96802;-88
2023/07/19 09:17:12;;;;;;;5.18;3.00;;;;;;;24.34;49.75;100703.50;10215991;28;97914;-87
2023/07/19 09:22:17;;;;;;;5.40;3.40;;;;;;;24.68;49.65;100697.63;10215988;28;96871;-87
2023/07/19 09:27:24;;;;;;;4.53;3.20;;;;;;;24.72;49.85;100701.72;10215579;28;96602;-86
2023/07/19 09:32:28;;;;;;;5.53;3.45;;;;;;;24.68;49.70;100697.63;10216377;28;97220;-90
2023/07/19 09:37:35;;;;;;;6.20;3.00;;;;;;;25.10;48.84;100690.19;10215955;28;97373;-85
2023/07/19 09:42:41;;;;;;;6.07;3.25;;;;;;;25.06;49.71;100682.50;10215452;28;96752;-89
2023/07/19 09:47:45;;;;;;;4.38;2.88;;;;;;;25.62;48.20;100681.56;10216563;28;96567;-87
2023/07/19 09:52:51;;;;;;;5.47;3.72;;;;;;;25.96;48.47;100683.75;10214558;28;97227;-87
2023/07/19 09:57:57;;;;;;;6.57;4.00;;;;;;;26.11;48.83;100677.72;10215019;28;96698;-87
2023/07/19 10:03:21;;;;;;;5.93;3.88;;;;;;;26.30;49.15;100669.53;10207967;28;97519;-86
2023/07/19 10:08:27;;;;;;;7.30;4.53;;;;;;;26.58;49.12;100673.09;10214729;28;96849;-86
2023/07/19 10:13:53;;;;;;;6.60;4.07;;;;;;;26.71;49.64;100663.63;10214351;28;96595;-85
2023/07/19 10:19:11;;;;;;;6.57;4.20;;;;;;;27.10;48.88;100661.47;10217317;28;96785;-86
2023/07/19 10:24:18;;;;;;;7.40;4.50;;;;;;;27.25;49.21;100653.66;10253701;28;96695;-86
2023/07/19 10:29:25;;;;;;;9.02;4.35;;;;;;;27.47;49.16;100655.84;10254253;28;96946;-87
2023/07/19 10:34:29;;;;;;;6.93;4.40;;;;;;;27.75;48.92;100649.31;10254081;28;98178;-89
2023/07/19 10:39:48;;;;;;;7.90;4.50;;;;;;;27.72;49.45;100649.59;10254322;28;96830;-90
2023/07/19 10:45:09;;;;;;;6.38;4.40;;;;;;;27.59;49.83;100652.72;10254987;28;97615;-89
2023/07/19 10:50:30;;;;;;;8.48;5.07;;;;;;;27.83;49.43;100642.06;10253474;28;96870;-88
2023/07/19 10:55:35;;;;;;;;;;;;;;;27.90;48.85;100645.84;10252661;28;96932;-88
2023/07/19 11:00:43;;;;;;;7.05;4.60;;;;;;;28.19;48.90;100642.72;10253373;28;96715;-87
2023/07/19 11:05:50;;;;;;;10.45;5.20;;;;;;;28.02;49.06;100630.16;10254121;28;97064;-90
2023/07/19 11:10:56;;;;;;;7.88;5.13;;;;;;;28.33;49.21;100623.19;10253207;28;97453;-89
2023/07/19 11:16:17;;;;;;;;;;;;;;;28.56;49.26;100629.69;10251399;28;97971;-90
2023/07/19 11:21:26;;;;;;;8.03;5.20;;;;;;;28.54;49.78;100623.56;10224300;28;97102;-91
2023/07/19 11:26:53;;;;;;;8.68;4.90;;;;;;;28.78;49.66;100622.75;10212978;28;96762;-89
2023/07/19 11:31:56;;;;;;;6.22;4.55;;;;;;;28.94;49.38;100620.94;10175390;28;96780;-91
2023/07/19 11:37:21;;;;;;;8.18;4.82;;;;;;;29.18;49.57;100611.94;10174096;28;97770;-87
2023/07/19 11:42:43;;;;;;;8.38;5.45;;;;;;;29.13;48.91;100606.19;10180218;28;96574;-87
2023/07/19 11:48:07;;;;;;;9.18;5.38;;;;;;;29.16;49.08;100601.28;10208727;28;96554;-88
2023/07/19 11:53:10;;;;;;;8.48;5.75;;;;;;;29.47;48.61;100598.69;10219646;28;96835;-90
2023/07/19 11:58:17;;;;;;;7.95;5.13;;;;;;;29.52;48.58;100593.59;10218924;28;96774;-87
2023/07/19 12:03:33;;;;;;;7.10;4.65;;;;;;;29.47;48.47;100600.56;10219592;28;97263;-89
2023/07/19 12:08:36;;;;;;;;;;;;;;;29.65;48.20;100587.66;10219248;28;96952;-90
2023/07/19 12:14:01;;;;;;;7.00;5.10;;;;;;;29.77;48.12;100573.53;10219014;28;97753;-89
2023/07/19 12:19:04;;;;;;;7.55;5.80;;;;;;;29.90;47.60;100572.97;10219720;28;98908;-88
2023/07/19 12:24:08;;;;;;;;;;;;;;;30.12;47.08;100566.78;10219644;28;97383;-91
2023/07/19 12:29:12;;;;;;;7.37;4.80;;;;;;;30.20;46.56;100555.88;10218732;28;96843;-89
2023/07/19 12:34:20;;;;;;;8.50;5.05;;;;;;;30.23;46.46;100553.63;10218157;28;97994;-89
2023/07/19 12:39:24;;;;;;;6.05;4.65;;;;;;;30.40;45.72;100548.97;10217619;28;96715;-88
2023/07/19 12:44:28;;;;;;;6.65;4.60;;;;;;;30.29;46.01;100546.66;10217353;28;96730;-88
2023/07/19 12:49:33;;;;;;;7.72;5.07;;;;;;;30.48;45.53;100540.75;10217557;28;96734;-89
2023/07/19 12:54:36;;;;;;;6.45;4.60;;;;;;;30.70;44.86;100526.31;10217833;28;96719;-87
2023/07/19 12:59:42;;;;;;;6.70;4.80;;;;;;;30.70;44.99;100525.47;10217747;28;97310;-90
2023/07/19 13:04:46;;;;;;;6.53;4.93;;;;;;;30.92;43.97;100520.00;10217590;28;96905;-90
2023/07/19 13:09:49;;;;;;;6.65;4.45;;;;;;;31.10;43.39;100512.34;10217847;28;96809;-90
2023/07/19 13:14:54;;;;;;;6.60;4.78;;;;;;;31.15;43.85;100503.63;10217475;28;97831;-89
2023/07/19 13:19:59;;;;;;;6.60;4.40;;;;;;;31.11;42.86;100502.34;10216558;28;96692;-90
2023/07/19 13:25:03;;;;;;;5.50;4.05;;;;;;;31.16;42.21;100505.34;10216116;28;97033;-90
2023/07/19 13:30:09;;;;;;;5.90;4.35;;;;;;;31.43;41.46;100490.25;10216046;28;96626;-88
2023/07/19 13:35:13;;;;;;;6.38;4.28;;;;;;;31.54;39.98;100501.50;10216116;28;97391;-87
2023/07/19 13:40:37;;;;;;;7.22;4.60;;;;;;;31.61;40.39;100494.28;10215941;28;96659;-87
2023/07/19 13:45:41;;;;;;;6.38;4.50;;;;;;;31.87;41.18;100500.09;10215809;28;96834;-89
2023/07/19 13:50:45;;;;;;;6.80;5.05;;;;;;;31.65;41.42;100483.88;10216495;28;96594;-89
2023/07/19 13:55:48;;;;;;;7.85;5.53;;;;;;;31.63;41.50;100485.94;10215433;28;97143;-89
2023/07/19 14:00:54;;;;;;;7.07;4.95;;;;;;;31.80;41.09;100480.13;10216186;28;96714;-90
2023/07/19 14:06:15;;;;;;;8.40;5.60;;;;;;;31.85;41.64;100468.63;10210233;28;96781;-88
2023/07/19 14:11:19;;;;;;;9.45;5.70;;;;;;;31.65;41.79;100473.81;10215372;28;97211;-87
2023/07/19 14:16:24;;;;;;;8.52;5.90;;;;;;;31.66;41.66;100464.63;10215191;28;96728;-88
2023/07/19 14:21:29;;;;;;;9.68;6.32;;;;;;;31.85;41.70;100461.31;10214039;28;97499;-90
2023/07/19 14:26:32;;;;;;;7.03;5.47;;;;;;;32.08;41.76;100452.97;10214168;28;97796;-88
2023/07/19 14:31:39;;;;;;;8.52;5.85;;;;;;;31.87;42.15;100442.94;10214777;28;96690;-90
2023/07/19 14:36:42;;;;;;;8.25;6.03;;;;;;;31.90;42.04;100445.25;10215408;28;96721;-90
2023/07/19 14:41:45;;;;;;;8.35;6.35;;;;;;;31.99;42.08;100440.53;10214651;28;97188;-91
2023/07/19 14:46:51;;;;;;;7.32;5.95;;;;;;;31.89;41.62;100440.00;10214715;28;96641;-89
2023/07/19 14:51:55;;;;;;;9.65;6.20;;;;;;;31.79;42.26;100436.72;10214935;28;96874;-88
2023/07/19 14:57:00;;;;;;;8.38;5.88;;;;;;;31.81;41.72;100431.94;10214221;28;97573;-88
2023/07/19 15:02:07;;;;;;;7.70;5.93;;;;;;;31.92;41.98;100437.75;10209848;28;97103;-90
2023/07/19 15:07:31;;;;;;;8.20;5.93;;;;;;;31.84;41.95;100434.28;10216132;28;96925;-88
2023/07/19 15:12:52;;;;;;;7.63;5.25;;;;;;;31.93;41.23;100425.81;10173674;28;96753;-89
2023/07/19 15:17:58;;;;;;;6.43;4.85;;;;;;;32.06;40.76;100430.53;10190521;28;96734;-90
2023/07/19 15:23:01;;;;;;;7.82;6.00;;;;;;;31.74;41.13;100428.25;10220166;28;96691;-88
2023/07/19 15:28:05;;;;;;;6.55;5.03;;;;;;;31.72;40.90;100424.91;10221076;28;97968;-90
2023/07/19 15:33:26;;;;;;;7.40;5.03;;;;;;;31.80;39.90;100425.69;10220138;28;96725;-90
2023/07/19 15:38:40;;;;;;;6.22;4.80;;;;;;;31.86;40.09;100415.91;10220088;28;96820;-90
2023/07/19 15:43:45;;;;;;;7.25;4.72;;;;;;;31.75;40.34;100421.81;10220718;28;96795;-89
2023/07/19 15:48:50;;;;;;;6.93;4.68;;;;;;;31.62;40.62;100421.63;10220524;28;97380;-88
2023/07/19 15:54:11;;;;;;;6.13;4.18;;;;;;;31.67;40.51;100416.50;10240780;22;97691;-89
2023/07/19 15:59:15;;;;;;;7.00;4.60;;;;;;;31.57;40.92;100411.34;10285244;28;97563;-89
2023/07/19 16:04:38;;;;;;;6.60;4.43;;;;;;;31.44;41.86;100403.03;10297978;28;96795;-88
2023/07/19 16:09:41;;;;;;;5.68;4.00;;;;;;;31.12;42.30;100398.81;10300619;28;96931;-87
2023/07/19 16:14:47;;;;;;;6.15;4.05;;;;;;;30.84;42.50;100397.78;10300318;28;96927;-88
2023/07/19 16:19:52;;;;;;;7.43;4.38;;;;;;;30.61;42.62;100388.81;10271940;28;97199;-89
2023/07/19 16:24:59;;;;;;;6.20;4.25;;;;;;;30.54;42.63;100395.19;10258972;28;97512;-88
2023/07/19 16:30:02;;;;;;;;;;;;;;;30.37;43.14;100383.63;10259915;28;96680;-87
2023/07/19 16:35:07;;;;;;;5.23;3.57;;;;;;;30.22;43.45;100388.19;10259691;28;96722;-88
2023/07/19 16:40:11;;;;;;;6.95;4.18;;;;;;;29.91;43.43;100379.25;10260186;28;96817;-87
2023/07/19 16:45:14;;;;;;;6.20;3.85;;;;;;;30.01;43.70;100385.28;10258503;28;97005;-89
2023/07/19 16:50:19;;;;;;;5.07;3.33;;;;;;;29.83;44.17;100385.56;10258473;28;96788;-87
2023/07/19 16:55:23;;;;;;;4.70;3.33;;;;;;;29.81;44.15;100390.38;10256533;28;97197;-89
2023/07/19 17:00:27;;;;;;;5.72;3.45;;;;;;;29.80;44.13;100388.66;10258093;28;96764;-90
2023/07/19 17:05:32;;;;;;;;;;;;;;;29.59;44.46;100384.91;10258464;28;97146;-90
2023/07/19 17:10:36;;;;;;;5.40;3.63;;;;;;;29.61;44.82;100391.00;10258722;28;97589;-90
2023/07/19 17:15:40;;;;;;;4.32;3.33;;;;;;;29.50;44.81;100391.38;10257811;28;96878;-88
2023/07/19 17:20:45;;;;;;;5.25;3.45;;;;;;;29.54;44.84;100395.44;10257674;28;97513;-89
2023/07/19 17:25:49;;;;;;;5.38;3.38;;;;;;;29.45;44.59;100391.91;10257689;28;96707;-89
2023/07/19 17:30:52;;;;;;;;;;;;;;;29.45;44.91;100396.50;10258400;28;96899;-89
2023/07/19 17:35:57;;;;;;;5.17;3.10;;;;;;;29.46;45.38;100399.03;10256484;28;96769;-90
2023/07/19 17:41:01;;;;;;;7.18;3.22;;;;;;;29.31;45.17;100392.69;10257727;28;96765;-88
2023/07/19 17:46:04;;;;;;;4.25;2.85;;;;;;;29.34;45.50;100410.44;10255288;28;96733;-90
2023/07/19 17:51:09;;;;;;;3.60;2.63;;;;;;;29.19;45.59;100404.94;10256477;28;97726;-88
2023/07/19 17:56:12;;;;;;;4.28;2.78;;;;;;;29.09;45.80;100401.56;10253474;28;96893;-88
2023/07/19 18:01:16;;;;;;;;;;;;;;;28.78;45.87;100408.75;10285431;28;96693;-87
2023/07/19 18:06:20;;;;;;;4.13;3.00;;;;;;;28.71;45.94;100410.44;10296508;28;96757;-89
2023/07/19 18:11:24;;;;;;;4.60;2.80;;;;;;;28.77;45.49;100410.63;10295978;28;96696;-89
2023/07/19 18:16:28;;;;;;;5.03;2.78;;;;;;;28.54;46.11;100417.78;10294749;28;97499;-87
2023/07/19 18:21:33;;;;;;;3.65;2.60;;;;;;;28.31;46.83;100415.94;10290256;28;97058;-86
2023/07/19 18:26:36;;;;;;;5.53;3.03;;;;;;;28.16;47.08;100407.59;10255155;28;96821;-86
2023/07/19 18:31:41;;;;;;;4.57;2.83;;;;;;;28.07;47.81;100420.28;10255309;28;97551;-87
2023/07/19 18:36:48;;;;;;;3.75;2.58;;;;;;;27.98;48.43;100410.47;10213376;28;97186;-86
2023/07/19 18:41:52;;;;;;;3.78;2.22;;;;;;;27.90;48.57;100418.59;10213393;28;96801;-88
2023/07/19 18:46:57;;;;;;;4.75;2.90;;;;;;;27.61;49.48;100414.59;10214535;28;96710;-86
2023/07/19 18:52:03;;;;;;;3.53;2.60;;;;;;;27.42;49.60;100415.75;10242224;28;96835;-84
2023/07/19 18:57:08;;;;;;;4.75;2.72;;;;;;;27.30;50.07;100417.06;10253895;28;96709;-87
2023/07/19 19:02:11;;;;;;;4.28;2.65;;;;;;;27.06;50.17;100411.53;10254617;28;96583;-86
2023/07/19 19:07:16;;;;;;;3.33;2.40;;;;;;;26.92;50.10;100404.84;10254937;28;96721;-85
2023/07/19 19:12:20;;;;;;;5.13;2.55;;;;;;;26.85;50.70;100411.06;10255528;28;96752;-88
2023/07/19 19:17:23;;;;;;;5.03;2.88;;;;;;;26.73;51.29;100404.25;10254002;28;96718;-88
2023/07/19 19:22:30;;;;;;;;;;;;;;;26.68;51.72;100411.97;10253774;28;96679;-87
2023/07/19 19:27:34;;;;;;;4.45;2.17;;;;;;;26.61;51.38;100406.34;10252878;28;97654;-86
2023/07/19 19:32:37;;;;;;;4.18;2.50;;;;;;;26.46;51.36;100412.47;10253535;28;96662;-85
2023/07/19 19:37:42;;;;;;;;;;;;;;;26.42;52.42;100413.81;10253690;28;96615;-88
2023/07/19 19:42:46;;;;;;;4.05;2.40;;;;;;;26.39;51.73;100403.31;10253854;28;96830;-88
2023/07/19 19:47:50;;;;;;;3.72;2.25;;;;;;;26.33;52.16;100414.72;10253498;28;96679;-90
2023/07/19 19:52:55;;;;;;;3.22;2.00;;;;;;;26.31;52.07;100411.34;10253513;28;97460;-87
2023/07/19 19:58:12;;;;;;;3.50;2.30;;;;;;;26.25;52.03;100423.59;10271813;28;96679;-87
2023/07/19 20:03:15;;;;;;;4.13;2.13;;;;;;;26.07;52.15;100420.09;10301097;28;97425;-90
2023/07/19 20:08:24;;;;;;;3.22;2.05;;;;;;;26.04;52.32;100428.47;10294330;28;96893;-90
2023/07/19 20:13:27;;;;;;;3.70;2.10;;;;;;;26.01;52.78;100438.72;10299315;28;96669;-87
2023/07/19 20:18:30;;;;;;;4.43;2.17;;;;;;;25.89;53.22;100444.34;10297392;28;97747;-90
2023/07/19 20:23:38;;;;;;;4.93;2.30;;;;;;;25.78;53.60;100449.09;10298078;28;96803;-89
2023/07/19 20:28:45;;;;;;;5.32;2.50;;;;;;;25.62;53.79;100446.22;10258666;28;96940;-89
2023/07/19 20:33:50;;;;;;;2.45;1.80;;;;;;;25.58;54.15;100450.22;10259421;28;97318;-90
2023/07/19 20:38:57;;;;;;;2.55;2.00;;;;;;;25.50;54.33;100439.34;10253144;28;96713;-89
2023/07/19 20:44:01;;;;;;;5.35;2.63;;;;;;;25.27;54.66;100444.28;10257993;28;97547;-88
2023/07/19 20:49:07;;;;;;;3.93;2.10;;;;;;;25.30;54.59;100443.13;10258589;28;97140;-90
2023/07/19 20:54:18;;;;;;;3.28;2.25;;;;;;;25.21;54.95;100447.56;10258090;28;96838;-90
2023/07/19 20:59:22;;;;;;;4.53;2.20;;;;;;;25.16;55.13;100452.53;10255634;28;96939;-89
2023/07/19 21:04:25;;;;;;;4.25;2.10;;;;;;;25.04;55.39;100452.88;10256975;28;96811;-89
2023/07/19 21:09:30;;;;;;;3.70;2.20;;;;;;;24.97;55.54;100451.72;10294559;28;96686;-88
2023/07/19 21:14:34;;;;;;;2.90;2.15;;;;;;;24.88;55.85;100448.09;10297397;28;97559;-89
2023/07/19 21:19:37;;;;;;;5.32;2.17;;;;;;;24.59;56.66;100464.31;10297002;28;96679;-88
2023/07/19 21:24:42;;;;;;;2.53;2.17;;;;;;;24.38;57.13;100460.94;10286643;28;96988;-89
2023/07/19 21:30:06;;;;;;;3.55;2.15;;;;;;;24.43;56.96;100463.19;10256333;28;96687;-89
2023/07/19 21:35:11;;;;;;;4.22;2.20;;;;;;;24.44;56.86;100463.06;10256154;28;96826;-88
2023/07/19 21:40:16;;;;;;;3.20;2.13;;;;;;;24.34;56.93;100464.06;10257362;28;96950;-89
2023/07/19 21:45:20;;;;;;;4.22;2.17;;;;;;;24.20;57.30;100461.78;10256405;28;96772;-89
2023/07/19 21:50:24;;;;;;;3.37;2.30;;;;;;;24.26;57.28;100461.19;10255841;28;96780;-88
2023/07/19 21:55:46;;;;;;;4.25;2.17;;;;;;;24.27;57.26;100462.91;10255211;28;96815;-89
2023/07/19 22:01:07;;;;;;;3.45;2.10;;;;;;;24.08;57.73;100462.91;10291132;28;96719;-89
2023/07/19 22:06:11;;;;;;;;;;;;;;;24.06;58.35;100463.06;10296272;28;97165;-89
2023/07/19 22:11:36;;;;;;;4.03;2.00;;;;;;;23.84;58.49;100457.09;10295834;28;96707;-89
2023/07/19 22:16:41;;;;;;;4.57;2.22;;;;;;;23.96;57.89;100455.97;10293149;28;97895;-89
2023/07/19 22:21:46;;;;;;;4.57;2.33;;;;;;;24.08;57.45;100455.69;10295421;28;96875;-89
2023/07/19 22:26:51;;;;;;;3.88;2.35;;;;;;;23.99;57.85;100450.31;10264414;28;96762;-88
2023/07/19 22:31:55;;;;;;;3.20;2.22;;;;;;;24.06;57.76;100456.81;10254900;28;96629;-89
2023/07/19 22:36:58;;;;;;;4.70;2.10;;;;;;;23.89;58.03;100468.28;10255130;28;96738;-89
2023/07/19 22:42:03;;;;;;;4.07;2.30;;;;;;;23.72;58.57;100467.09;10254252;28;96723;-89
2023/07/19 22:47:06;;;;;;;4.20;2.38;;;;;;;23.51;58.83;100466.34;10254510;28;97095;-89
2023/07/19 22:52:10;;;;;;;4.07;2.13;;;;;;;23.33;59.45;100468.84;10252928;28;96832;-88
2023/07/19 22:57:16;;;;;;;5.77;2.83;;;;;;;23.24;59.70;100466.94;10253674;28;97909;-89
2023/07/19 23:02:20;;;;;;;2.90;2.05;;;;;;;22.99;60.25;100478.13;10253986;28;96694;-89
2023/07/19 23:07:24;;;;;;;;;;;;;;;23.04;60.79;100472.38;10284071;28;97358;-89
2023/07/19 23:12:31;;;;;;;3.67;2.33;;;;;;;22.92;60.21;100476.13;10294574;28;97414;-89
2023/07/19 23:17:35;;;;;;;4.45;2.25;;;;;;;22.82;60.29;100476.06;10294498;28;96698;-89
2023/07/19 23:22:40;;;;;;;2.60;1.95;;;;;;;22.85;60.11;100473.13;10292668;28;97967;-89
2023/07/19 23:27:47;;;;;;;6.03;2.17;;;;;;;22.76;60.67;100471.22;10280652;28;96896;-89
2023/07/19 23:32:52;;;;;;;3.95;2.33;;;;;;;22.75;60.68;100468.66;10260078;28;97014;-89
2023/07/19 23:37:57;;;;;;;4.43;2.08;;;;;;;22.77;60.73;100466.69;10260135;28;96842;-89
2023/07/19 23:43:03;;;;;;;3.83;2.38;;;;;;;22.72;60.95;100471.59;10258783;28;96713;-88